Time;durP1;ratioP1;P1;durP2;ratioP2;P2;SDS_P1;SDS_P2;PMS_P1;PMS_P2;Temp;Humidity;BMP_temperature;BMP_pressure;BME280_temperature;BME280_humidity;BME280_pressure;Samples;Min_cycle;Max_cycle;Signal;HPM_P1;HPM_P2
2022/07/07 00:01:24;;;;;;;;;1.00;1.00;;;;;23.19;60.09;102234.31;5056322;28;45363;-67
2022/07/07 00:03:51;;;;;;;;;1.00;1.00;;;;;23.25;59.53;102236.28;5078853;28;45397;-67
2022/07/07 00:06:17;;;;;;;;;5.00;2.00;;;;;23.16;59.72;102232.78;5054404;28;45354;-67
2022/07/07 00:08:43;;;;;;;;;3.00;1.67;;;;;23.33;58.63;102235.31;5062717;28;46235;-67
2022/07/07 00:11:08;;;;;;;;;2.00;2.00;;;;;23.23;60.78;102228.16;5056171;28;45453;-67
2022/07/07 00:13:33;;;;;;;;;1.00;1.00;;;;;23.17;60.06;102219.78;5062920;28;45410;-66
2022/07/07 00:15:59;;;;;;;;;3.67;2.00;;;;;23.24;60.76;102234.56;5059748;28;45878;-67
2022/07/07 00:18:24;;;;;;;;;1.00;1.00;;;;;23.28;60.33;102228.44;5062796;28;46223;-67
2022/07/07 00:20:49;;;;;;;;;3.00;3.00;;;;;23.35;60.45;102230.44;5060117;28;45512;-67
2022/07/07 00:23:15;;;;;;;;;2.67;2.67;;;;;23.29;59.78;102226.53;5062575;28;45673;-67
2022/07/07 00:25:40;;;;;;;;;0.00;0.00;;;;;23.20;60.60;102228.56;5060158;28;45443;-67
2022/07/07 00:28:05;;;;;;;;;3.33;3.33;;;;;23.13;60.62;102235.09;5053225;28;46400;-68
2022/07/07 00:30:31;;;;;;;;;5.33;4.00;;;;;23.05;61.87;102233.28;5059114;28;45485;-67
2022/07/07 00:32:56;;;;;;;;;4.00;4.00;;;;;23.11;60.55;102224.19;5062461;28;45357;-67
2022/07/07 00:35:21;;;;;;;;;3.00;3.00;;;;;23.19;60.40;102228.75;5061879;28;45243;-67
2022/07/07 00:37:47;;;;;;;;;6.33;4.33;;;;;23.15;60.15;102216.34;5060095;28;45590;-67
2022/07/07 00:40:12;;;;;;;;;4.00;4.00;;;;;23.16;60.45;102213.34;5062489;28;45451;-67
2022/07/07 00:42:38;;;;;;;;;2.00;2.00;;;;;23.00;62.07;102218.31;5058179;28;46044;-67
2022/07/07 00:45:06;;;;;;;;;3.00;3.00;;;;;23.02;61.98;102217.03;5062382;28;45386;-67
2022/07/07 00:47:32;;;;;;;;;2.00;2.00;;;;;23.06;60.58;102207.28;5058553;28;46610;-67
2022/07/07 00:50:00;;;;;;;;;2.00;2.00;;;;;22.93;62.59;102207.13;5074952;28;45318;-67
2022/07/07 00:52:26;;;;;;;;;2.00;2.00;;;;;22.86;63.03;102200.66;5055898;28;45491;-67
2022/07/07 00:54:59;;;;;;;;;5.00;2.00;;;;;22.82;63.07;102202.94;5061693;28;45321;-67
2022/07/07 00:57:26;;;;;;;;;4.00;3.00;;;;;22.76;63.50;102202.84;5062039;28;47915;-67
2022/07/07 00:59:56;;;;;;;;;1.33;1.33;;;;;22.82;63.26;102199.31;5062348;28;45502;-67
2022/07/07 01:02:21;;;;;;;;;2.00;2.00;;;;;22.79;62.42;102194.16;5054183;28;45384;-67
2022/07/07 01:04:47;;;;;;;;;2.67;1.00;;;;;22.75;62.40;102190.06;5062669;28;45153;-67
2022/07/07 01:07:13;;;;;;;;;1.33;1.33;;;;;22.76;62.99;102183.47;5056693;28;45852;-67
2022/07/07 01:09:41;;;;;;;;;2.00;2.00;;;;;22.87;61.70;102180.16;5061894;28;45360;-67
2022/07/07 01:12:06;;;;;;;;;2.00;2.00;;;;;22.77;63.06;102182.41;5057593;28;45404;-67
2022/07/07 01:14:32;;;;;;;;;2.00;2.00;;;;;22.85;62.27;102182.31;5062629;28;45300;-67
2022/07/07 01:16:57;;;;;;;;;2.00;2.00;;;;;22.98;61.65;102188.00;5059878;28;45595;-67
2022/07/07 01:19:23;;;;;;;;;2.33;2.00;;;;;22.85;61.61;102183.16;5062134;28;45440;-67
2022/07/07 01:21:55;;;;;;;;;2.00;2.00;;;;;22.84;61.51;102180.56;5056131;28;45252;-67
2022/07/07 01:24:26;;;;;;;;;3.67;3.67;;;;;22.79;63.17;102189.47;5058973;28;45259;-67
2022/07/07 01:27:11;;;;;;;;;4.33;4.33;;;;;22.79;62.79;102181.13;5051020;28;48069;-67
2022/07/07 01:29:42;;;;;;;;;2.00;2.00;;;;;22.79;62.50;102174.78;5061392;28;45453;-67
2022/07/07 01:32:08;;;;;;;;;4.33;3.33;;;;;22.82;62.57;102183.53;5051197;28;45358;-67
2022/07/07 01:34:40;;;;;;;;;4.00;3.00;;;;;22.84;63.01;102177.81;5062328;28;45557;-67
2022/07/07 01:37:06;;;;;;;;;3.00;3.00;;;;;22.83;62.35;102184.41;5054079;28;45671;-67
2022/07/07 01:39:31;;;;;;;;;3.00;3.00;;;;;22.79;62.78;102180.31;5061875;28;45286;-67
2022/07/07 01:41:57;;;;;;;;;3.00;3.00;;;;;22.74;63.81;102169.78;5059584;28;45413;-67
2022/07/07 01:44:23;;;;;;;;;2.33;2.33;;;;;22.69;62.86;102172.25;5062442;28;45312;-67
2022/07/07 01:46:48;;;;;;;;;4.00;4.00;;;;;22.76;63.18;102166.84;5057136;28;48059;-67
2022/07/07 01:49:14;;;;;;;;;3.67;3.00;;;;;22.66;63.84;102171.78;5065142;28;45472;-67
2022/07/07 01:51:39;;;;;;;;;3.33;3.33;;;;;22.59;63.63;102170.81;5061408;28;45743;-67
2022/07/07 01:54:05;;;;;;;;;2.00;2.00;;;;;22.50;63.18;102165.38;5066089;28;45191;-66
2022/07/07 01:56:30;;;;;;;;;4.67;3.00;;;;;22.51;64.09;102153.25;5077303;28;46316;-67
2022/07/07 01:58:55;;;;;;;;;3.67;3.67;;;;;22.50;63.61;102157.06;5080954;28;45555;-67
2022/07/07 02:01:21;;;;;;;;;3.67;3.67;;;;;22.60;63.74;102165.09;5058508;28;45394;-67
2022/07/07 02:03:46;;;;;;;;;5.00;5.00;;;;;22.47;63.77;102149.19;5081239;27;45462;-67
2022/07/07 02:06:11;;;;;;;;;3.00;3.00;;;;;22.41;64.78;102152.72;5062626;28;45315;-67
2022/07/07 02:08:37;;;;;;;;;4.00;4.00;;;;;22.27;65.76;102136.97;5063581;28;45227;-67
2022/07/07 02:11:14;;;;;;;;;4.00;4.00;;;;;22.38;64.74;102142.00;5061413;28;45324;-67
2022/07/07 02:13:48;;;;;;;;;2.33;2.33;;;;;22.41;64.81;102136.09;5063354;28;45348;-67
2022/07/07 02:16:15;;;;;;;;;3.00;3.00;;;;;22.14;66.56;102139.53;5061295;28;45449;-67
2022/07/07 02:18:42;;;;;;;;;3.00;3.00;;;;;22.00;67.49;102143.16;5065024;28;45358;-67
2022/07/07 02:21:10;;;;;;;;;2.00;2.00;;;;;21.96;67.84;102150.09;5062505;28;45580;-67
2022/07/07 02:23:37;;;;;;;;;3.67;3.67;;;;;22.08;66.68;102145.81;5064400;28;45473;-67
2022/07/07 02:26:04;;;;;;;;;3.00;3.00;;;;;22.18;66.32;102143.66;5062425;28;45337;-67
2022/07/07 02:28:29;;;;;;;;;2.33;2.33;;;;;22.27;65.75;102141.66;5064589;28;45275;-67
2022/07/07 02:30:55;;;;;;;;;3.67;3.00;;;;;22.08;66.93;102145.81;5060990;28;45410;-67
2022/07/07 02:33:22;;;;;;;;;3.00;3.00;;;;;22.13;66.58;102149.78;5064091;28;45470;-67
2022/07/07 02:35:48;;;;;;;;;5.00;3.00;;;;;22.15;66.27;102144.03;5063348;28;45373;-67
2022/07/07 02:38:14;;;;;;;;;5.00;3.00;;;;;22.13;65.95;102148.91;5060161;28;45423;-67
2022/07/07 02:40:40;;;;;;;;;2.67;2.67;;;;;22.21;65.72;102151.56;5062118;28;45334;-67
2022/07/07 02:43:06;;;;;;;;;3.00;3.00;;;;;22.20;66.14;102152.63;5061326;28;45279;-67
2022/07/07 02:45:31;;;;;;;;;2.00;2.00;;;;;22.13;65.55;102132.31;5062447;28;45491;-67
2022/07/07 02:47:56;;;;;;;;;2.33;2.33;;;;;22.27;65.84;102150.81;5059962;28;45347;-67
2022/07/07 02:50:22;;;;;;;;;4.00;4.00;;;;;22.10;66.41;102152.91;5062213;28;45271;-67
2022/07/07 02:52:47;;;;;;;;;2.67;2.67;;;;;22.10;65.72;102144.59;5059235;28;45298;-68
2022/07/07 02:55:13;;;;;;;;;3.00;3.00;;;;;21.96;67.46;102151.00;5063129;28;47870;-68
2022/07/07 02:57:38;;;;;;;;;4.00;4.00;;;;;22.04;67.06;102147.28;5057469;28;45405;-68
2022/07/07 03:00:06;;;;;;;;;3.00;3.00;;;;;22.09;65.90;102151.19;5064475;28;45275;-68
2022/07/07 03:02:31;;;;;;;;;3.00;3.00;;;;;22.14;65.28;102140.38;5060133;28;45511;-68
2022/07/07 03:04:56;;;;;;;;;3.00;3.00;;;;;22.27;64.87;102136.13;5064217;28;45667;-68
2022/07/07 03:07:22;;;;;;;;;4.00;4.00;;;;;22.09;66.29;102142.03;5062212;28;45673;-68
2022/07/07 03:09:47;;;;;;;;;4.67;4.00;;;;;22.13;65.96;102135.94;5063986;28;45321;-68
2022/07/07 03:12:12;;;;;;;;;4.00;4.00;;;;;22.10;66.14;102146.50;5062340;28;45377;-65
2022/07/07 03:14:38;;;;;;;;;3.00;3.00;;;;;21.95;67.01;102140.06;5063981;28;45539;-68
2022/07/07 03:17:03;;;;;;;;;3.33;3.33;;;;;22.01;66.53;102136.56;5062080;28;45377;-68
2022/07/07 03:19:29;;;;;;;;;3.67;3.67;;;;;21.89;67.80;102136.16;5063376;28;46322;-68
2022/07/07 03:21:54;;;;;;;;;3.00;3.00;;;;;21.99;67.02;102147.00;5062378;28;45420;-68
2022/07/07 03:24:20;;;;;;;;;2.67;2.67;;;;;21.94;67.71;102139.19;5063904;28;45262;-68
2022/07/07 03:26:45;;;;;;;;;4.00;2.67;;;;;21.96;66.97;102136.25;5061490;28;45197;-68
2022/07/07 03:29:10;;;;;;;;;3.00;3.00;;;;;21.92;66.62;102134.91;5064216;28;45307;-68
2022/07/07 03:31:36;;;;;;;;;2.33;2.33;;;;;21.91;67.98;102135.97;5060148;28;45403;-68
2022/07/07 03:34:01;;;;;;;;;3.00;3.00;;;;;21.94;67.49;102135.56;5063625;28;45418;-68
2022/07/07 03:36:26;;;;;;;;;2.00;2.00;;;;;21.88;66.95;102128.03;5060386;28;45319;-68
2022/07/07 03:38:52;;;;;;;;;5.33;3.00;;;;;21.91;67.83;102133.22;5063830;28;45382;-67
2022/07/07 03:41:17;;;;;;;;;5.67;4.33;;;;;21.82;68.13;102126.88;5058222;28;45514;-68
2022/07/07 03:43:43;;;;;;;;;3.33;3.33;;;;;21.80;67.69;102117.06;5061609;28;47339;-68
2022/07/07 03:46:08;;;;;;;;;6.67;4.00;;;;;21.68;69.34;102123.06;5059058;28;45326;-67
2022/07/07 03:48:33;;;;;;;;;3.67;3.67;;;;;21.52;70.65;102125.09;5061750;28;45291;-68
2022/07/07 03:50:59;;;;;;;;;4.00;4.00;;;;;21.51;71.24;102121.47;5060532;28;45243;-68
2022/07/07 03:53:25;;;;;;;;;5.00;4.00;;;;;21.61;70.62;102127.63;5059973;28;45586;-68
2022/07/07 03:55:50;;;;;;;;;4.67;4.00;;;;;21.62;71.22;102121.06;5061171;28;45720;-68
2022/07/07 03:58:15;;;;;;;;;6.00;5.00;;;;;21.57;71.32;102122.63;5059151;28;45430;-68
2022/07/07 04:00:41;;;;;;;;;5.00;3.67;;;;;21.33;72.95;102118.22;5061589;28;45484;-68
2022/07/07 04:03:06;;;;;;;;;6.00;5.00;;;;;21.21;73.42;102114.13;5058990;28;45316;-68
2022/07/07 04:05:31;;;;;;;;;4.33;4.33;;;;;21.45;72.14;102115.84;5061347;28;45320;-68
2022/07/07 04:07:57;;;;;;;;;5.00;3.33;;;;;21.48;72.33;102115.47;5062328;28;45558;-68
2022/07/07 04:10:22;;;;;;;;;7.00;6.33;;;;;21.46;72.22;102115.66;5062285;28;45407;-67
2022/07/07 04:12:47;;;;;;;;;5.00;5.00;;;;;21.50;71.53;102107.84;5060815;28;45460;-68
2022/07/07 04:15:13;;;;;;;;;5.00;5.00;;;;;21.54;71.69;102114.72;5063171;28;45457;-67
2022/07/07 04:17:39;;;;;;;;;6.67;6.67;;;;;21.69;71.49;102127.56;5059210;28;45501;-67
2022/07/07 04:20:06;;;;;;;;;6.00;4.33;;;;;21.68;70.78;102114.75;5061996;28;45642;-68
2022/07/07 04:22:31;;;;;;;;;4.67;4.67;;;;;21.57;72.10;102098.59;5059891;28;45361;-67
2022/07/07 04:24:57;;;;;;;;;5.33;4.33;;;;;21.67;72.21;102126.88;5061608;28;45255;-67
2022/07/07 04:27:22;;;;;;;;;6.67;6.67;;;;;21.65;72.60;102114.25;5056133;28;45449;-68
2022/07/07 04:29:47;;;;;;;;;9.00;6.00;;;;;21.57;72.79;102109.66;5063124;28;45327;-67
2022/07/07 04:32:13;;;;;;;;;5.00;4.67;;;;;21.71;72.31;102124.56;5060778;28;46216;-68
2022/07/07 04:34:38;;;;;;;;;6.00;5.00;;;;;21.71;71.86;102116.28;5062638;28;45318;-68
2022/07/07 04:37:05;;;;;;;;;6.00;4.33;;;;;21.79;71.68;102120.84;5053787;28;45338;-67
2022/07/07 04:39:30;;;;;;;;;6.00;5.00;;;;;21.79;71.78;102116.19;5062629;28;45362;-68
2022/07/07 04:41:55;;;;;;;;;8.33;8.33;;;;;21.82;72.17;102128.78;5047767;28;47038;-69
2022/07/07 04:44:21;;;;;;;;;6.67;4.00;;;;;21.80;72.71;102136.41;5061316;28;45397;-68
2022/07/07 04:46:46;;;;;;;;;7.00;7.00;;;;;21.90;72.03;102134.25;5055369;28;45408;-68
2022/07/07 04:49:11;;;;;;;;;7.67;6.00;;;;;21.94;72.51;102141.09;5062530;28;45311;-68
2022/07/07 04:51:37;;;;;;;;;8.33;6.00;;;;;21.88;71.77;102145.50;5054849;28;45439;-68
2022/07/07 04:54:03;;;;;;;;;8.33;7.33;;;;;21.87;72.95;102154.84;5061077;28;45366;-68
2022/07/07 04:56:29;;;;;;;;;6.33;5.67;;;;;21.99;72.06;102158.06;5056896;28;45331;-66
2022/07/07 04:58:55;;;;;;;;;8.33;7.33;;;;;21.80;73.45;102153.03;5061004;28;45563;-68
2022/07/07 05:01:20;;;;;;;;;11.00;8.00;;;;;21.90;72.95;102154.47;5055908;28;45672;-68
2022/07/07 05:03:46;;;;;;;;;9.33;9.00;;;;;21.94;73.53;102155.81;5057403;28;45343;-68
2022/07/07 05:06:12;;;;;;;;;9.67;6.33;;;;;22.19;71.43;102155.59;5057245;28;45440;-68
2022/07/07 05:08:38;;;;;;;;;8.00;8.00;;;;;22.29;70.90;102154.22;5060194;28;45497;-68
2022/07/07 05:11:04;;;;;;;;;7.00;6.33;;;;;22.29;69.98;102158.91;5057781;28;46440;-68
2022/07/07 05:13:29;;;;;;;;;5.50;5.50;;;;;22.26;70.54;102148.22;5061234;28;45343;-69
2022/07/07 05:15:54;;;;;;;;;9.00;7.00;;;;;21.99;72.82;102160.81;5059129;28;45503;-68
2022/07/07 05:18:20;;;;;;;;;7.50;5.00;;;;;21.93;73.30;102156.00;5060737;28;45501;-67
2022/07/07 05:20:45;;;;;;;;;12.67;8.67;;;;;22.09;73.07;102164.16;5058392;28;45711;-68
2022/07/07 05:23:11;;;;;;;;;8.00;6.67;;;;;22.17;71.91;102160.44;5061171;28;45389;-68
2022/07/07 05:25:36;;;;;;;;;9.33;8.67;;;;;22.22;72.25;102161.59;5062736;28;45383;-68
2022/07/07 05:28:01;;;;;;;;;5.67;4.00;;;;;22.18;72.49;102168.56;5061055;28;45322;-68
2022/07/07 05:30:27;;;;;;;;;9.00;7.67;;;;;22.06;72.84;102170.91;5064112;28;45593;-68
2022/07/07 05:32:53;;;;;;;;;8.00;8.00;;;;;22.01;73.64;102161.47;5056070;28;45398;-68
2022/07/07 05:35:18;;;;;;;;;6.00;6.00;;;;;22.11;72.90;102173.16;5064950;28;45632;-67
2022/07/07 05:37:43;;;;;;;;;7.00;7.00;;;;;22.17;73.25;102169.59;5039675;28;45328;-68
2022/07/07 05:40:09;;;;;;;;;11.00;7.33;;;;;22.20;72.63;102169.25;5062743;28;46407;-68
2022/07/07 05:42:35;;;;;;;;;10.00;7.33;;;;;22.33;71.68;102155.59;5057288;28;45320;-68
2022/07/07 05:45:00;;;;;;;;;7.33;7.33;;;;;22.40;71.30;102162.06;5064384;28;45194;-68
2022/07/07 05:47:26;;;;;;;;;6.33;5.00;;;;;22.53;70.70;102159.47;5058353;28;45603;-68
2022/07/07 05:49:51;;;;;;;;;6.33;6.33;;;;;22.49;70.90;102160.06;5064037;28;45285;-67
2022/07/07 05:52:17;;;;;;;;;6.67;6.67;;;;;22.50;71.46;102162.63;5058951;28;45591;-67
2022/07/07 05:54:42;;;;;;;;;12.67;8.00;;;;;22.60;70.47;102167.00;5063253;28;45347;-68
2022/07/07 05:57:08;;;;;;;;;5.00;5.00;;;;;22.66;69.96;102167.09;5056265;28;45569;-68
2022/07/07 05:59:33;;;;;;;;;6.33;6.00;;;;;22.71;69.99;102178.47;5058997;28;46275;-67
2022/07/07 06:01:59;;;;;;;;;7.33;5.33;;;;;22.83;69.24;102176.94;5059842;28;45303;-68
2022/07/07 06:04:26;;;;;;;;;7.00;3.33;;;;;22.74;70.14;102172.56;5061875;28;45296;-67
2022/07/07 06:06:52;;;;;;;;;12.67;8.00;;;;;22.77;70.13;102174.97;5053379;28;45504;-67
2022/07/07 06:09:18;;;;;;;;;8.00;7.33;;;;;22.83;69.86;102192.72;5053500;28;47682;-67
2022/07/07 06:11:43;;;;;;;;;6.00;6.00;;;;;22.82;70.16;102188.22;5058664;28;45580;-68
2022/07/07 06:14:09;;;;;;;;;11.00;8.00;;;;;22.73;70.83;102200.41;5067881;28;45368;-67
2022/07/07 06:16:43;;;;;;;;;10.33;7.67;;;;;22.65;72.01;102194.97;5060551;28;45265;-67
2022/07/07 06:19:10;;;;;;;;;7.67;7.00;;;;;22.72;71.32;102204.28;5063799;28;45475;-68
2022/07/07 06:21:36;;;;;;;;;7.00;5.33;;;;;22.69;71.48;102204.66;5057439;28;45498;-67
2022/07/07 06:24:02;;;;;;;;;5.33;5.33;;;;;22.53;71.89;102214.00;5063412;28;45212;-67
2022/07/07 06:26:28;;;;;;;;;9.00;6.00;;;;;22.65;71.90;102217.16;5060559;28;45433;-67
2022/07/07 06:28:53;;;;;;;;;8.00;8.00;;;;;22.64;72.03;102218.22;5062005;28;46416;-68
2022/07/07 06:31:18;;;;;;;;;7.67;5.33;;;;;22.68;71.93;102219.53;5056927;28;45233;-67
2022/07/07 06:33:44;;;;;;;;;12.33;11.67;;;;;22.82;71.08;102208.47;5062024;28;45350;-69
2022/07/07 06:36:09;;;;;;;;;8.67;7.67;;;;;22.77;71.91;102221.19;5059956;28;45483;-68
2022/07/07 06:38:35;;;;;;;;;7.67;7.33;;;;;22.82;71.29;102224.25;5059856;28;46548;-68
2022/07/07 06:41:00;;;;;;;;;9.33;6.33;;;;;22.94;71.41;102225.47;5057784;28;45397;-68
2022/07/07 06:43:26;;;;;;;;;3.00;3.00;;;;;23.01;70.50;102223.66;5051638;28;45401;-69
2022/07/07 06:45:51;;;;;;;;;6.00;4.00;;;;;23.22;69.96;102228.38;5059999;28;45308;-67
2022/07/07 06:48:17;;;;;;;;;8.00;8.00;;;;;23.43;69.01;102231.19;5058528;28;46183;-68
2022/07/07 06:50:42;;;;;;;;;9.00;7.67;;;;;23.17;69.03;102201.22;5060864;28;45385;-71
2022/07/07 06:53:08;;;;;;;;;5.67;5.67;;;;;23.41;67.99;102211.09;5058265;28;45433;-68
2022/07/07 06:55:33;;;;;;;;;2.00;2.00;;;;;23.64;67.74;102222.88;5061016;28;45576;-68
2022/07/07 06:57:58;;;;;;;;;4.00;4.00;;;;;23.61;67.23;102226.03;5061643;28;45507;-67
2022/07/07 07:00:24;;;;;;;;;5.00;5.00;;;;;23.70;67.04;102218.44;5062026;28;45362;-68
2022/07/07 07:02:49;;;;;;;;;6.67;4.00;;;;;23.97;66.07;102225.94;5058288;28;45290;-68
2022/07/07 07:05:15;;;;;;;;;4.33;4.33;;;;;24.01;65.84;102226.41;5063789;28;45288;-68
2022/07/07 07:07:41;;;;;;;;;4.67;3.67;;;;;24.11;65.65;102229.69;5071499;27;46151;-67
2022/07/07 07:10:08;;;;;;;;;7.00;6.00;;;;;24.18;65.13;102229.75;5059662;28;45266;-67
2022/07/07 07:12:34;;;;;;;;;4.00;4.00;;;;;24.27;64.49;102234.97;5053888;28;45381;-67
2022/07/07 07:15:00;;;;;;;;;5.33;5.33;;;;;24.44;63.75;102243.84;5062220;28;45382;-68
2022/07/07 07:17:25;;;;;;;;;8.00;6.00;;;;;24.56;63.28;102231.09;5060399;28;46292;-69
2022/07/07 07:19:51;;;;;;;;;5.00;3.67;;;;;24.50;63.19;102245.81;5061944;28;46462;-68
2022/07/07 07:22:17;;;;;;;;;7.33;5.33;;;;;24.50;62.65;102245.81;5060661;28;45384;-68
2022/07/07 07:24:43;;;;;;;;;5.00;5.00;;;;;24.55;63.28;102243.28;5062468;28;45374;-69
2022/07/07 07:27:08;;;;;;;;;6.67;4.00;;;;;24.36;63.62;102246.78;5058869;28;46317;-67
2022/07/07 07:29:33;;;;;;;;;9.00;8.67;;;;;24.53;63.90;102253.75;5062475;28;45382;-67
2022/07/07 07:31:59;;;;;;;;;4.67;3.00;;;;;24.77;62.53;102255.16;5056279;28;45427;-68
2022/07/07 07:34:24;;;;;;;;;4.33;3.67;;;;;24.75;61.80;102272.06;5062444;28;45435;-67
2022/07/07 07:36:49;;;;;;;;;5.00;5.00;;;;;24.38;63.43;102261.34;5056245;28;45482;-68
2022/07/07 07:39:15;;;;;;;;;6.67;6.67;;;;;24.45;63.53;102265.03;5062213;28;47774;-67
2022/07/07 07:41:40;;;;;;;;;5.00;5.00;;;;;24.64;62.46;102250.38;5055763;28;45391;-68
2022/07/07 07:44:06;;;;;;;;;5.00;5.00;;;;;24.99;61.54;102261.50;5061844;28;45192;-68
2022/07/07 07:46:31;;;;;;;;;6.00;4.33;;;;;25.32;59.95;102262.50;5054482;28;47359;-67
2022/07/07 07:48:58;;;;;;;;;4.00;4.00;;;;;25.50;59.79;102265.53;5062370;28;45306;-67
2022/07/07 07:51:24;;;;;;;;;3.33;3.00;;;;;25.50;57.94;102265.53;5056052;28;45340;-68
2022/07/07 07:53:49;;;;;;;;;4.67;4.00;;;;;25.63;58.97;102269.47;5058985;28;45532;-68
2022/07/07 07:56:14;;;;;;;;;4.00;4.00;;;;;25.93;57.13;102276.38;5058820;28;48038;-68
2022/07/07 07:58:40;;;;;;;;;7.33;6.33;;;;;25.90;56.85;102274.00;5061357;28;45330;-68
2022/07/07 08:01:05;;;;;;;;;6.33;6.33;;;;;26.32;56.11;102268.03;5058804;28;45456;-68
2022/07/07 08:03:31;;;;;;;;;4.33;4.00;;;;;26.48;55.03;102279.81;5060675;28;45483;-66
2022/07/07 08:05:56;;;;;;;;;3.33;2.33;;;;;26.34;55.27;102274.25;5060205;28;45631;-67
2022/07/07 08:08:21;;;;;;;;;3.00;3.00;;;;;26.61;53.27;102274.22;5060947;28;45373;-68
2022/07/07 08:10:47;;;;;;;;;1.33;1.33;;;;;26.60;54.10;102270.56;5059689;28;45295;-68
2022/07/07 08:13:13;;;;;;;;;4.00;4.00;;;;;26.51;53.77;102276.59;5054302;28;45536;-67
2022/07/07 08:15:38;;;;;;;;;3.67;2.33;;;;;26.61;52.91;102246.31;5060289;28;46452;-68
2022/07/07 08:18:03;;;;;;;;;3.00;3.00;;;;;26.92;52.07;102260.44;5060739;28;45311;-68
2022/07/07 08:20:29;;;;;;;;;3.33;1.67;;;;;26.92;51.78;102271.59;5061059;28;45654;-68
2022/07/07 08:22:55;;;;;;;;;2.00;2.00;;;;;26.58;52.62;102263.50;5061268;28;45576;-68
2022/07/07 08:25:21;;;;;;;;;3.67;2.67;;;;;26.46;53.79;102260.50;5059923;28;48163;-68
2022/07/07 08:27:47;;;;;;;;;3.00;2.00;;;;;26.65;53.38;102270.78;5059264;28;45320;-68
2022/07/07 08:30:13;;;;;;;;;1.00;1.00;;;;;26.77;52.30;102259.81;5060572;28;45456;-68
2022/07/07 08:32:39;;;;;;;;;6.33;4.67;;;;;26.59;52.90;102254.06;5055373;28;45399;-68
2022/07/07 08:35:05;;;;;;;;;3.00;3.00;;;;;26.41;53.59;102243.59;5060760;28;46544;-68
2022/07/07 08:37:31;;;;;;;;;3.00;3.00;;;;;27.02;51.13;102249.69;5054750;28;45390;-68
2022/07/07 08:39:56;;;;;;;;;2.33;2.33;;;;;27.48;50.42;102245.78;5054405;28;45360;-67
2022/07/07 08:42:22;;;;;;;;;2.33;2.33;;;;;27.68;49.93;102260.50;5055094;28;45654;-68
2022/07/07 08:44:48;;;;;;;;;4.00;2.00;;;;;27.56;48.63;102267.03;5061927;28;46489;-68
2022/07/07 08:47:13;;;;;;;;;7.00;4.33;;;;;27.91;48.33;102267.44;5055143;28;45383;-68
2022/07/07 08:49:39;;;;;;;;;2.33;2.33;;;;;28.15;47.83;102264.69;5061105;28;45449;-68
2022/07/07 08:52:05;;;;;;;;;1.33;1.33;;;;;28.09;46.95;102256.31;5074266;27;45626;-67
2022/07/07 08:54:33;;;;;;;;;3.00;3.00;;;;;27.91;47.46;102281.41;5061727;28;45209;-68
2022/07/07 08:56:59;;;;;;;;;2.33;2.00;;;;;27.84;47.86;102270.25;5058604;28;45507;-67
2022/07/07 08:59:24;;;;;;;;;1.00;1.00;;;;;27.47;47.55;102266.38;5061449;28;45397;-67
2022/07/07 09:01:57;;;;;;;;;1.00;1.00;;;;;27.18;49.47;102264.22;5059261;28;45382;-68
2022/07/07 09:04:23;;;;;;;;;0.00;0.00;;;;;27.83;48.50;102266.59;5061274;28;45350;-67
2022/07/07 09:07:01;;;;;;;;;1.33;1.00;;;;;28.05;47.04;102260.66;5058852;28;45441;-68
2022/07/07 09:09:29;;;;;;;;;1.00;1.00;;;;;28.28;46.92;102261.75;5060391;28;45306;-67
2022/07/07 09:12:01;;;;;;;;;2.00;1.00;;;;;28.40;46.48;102263.81;5057489;28;45615;-67
2022/07/07 09:14:35;;;;;;;;;2.00;2.00;;;;;28.40;46.25;102267.47;5060367;28;46913;-68
2022/07/07 09:17:00;;;;;;;;;2.00;2.00;;;;;28.02;46.65;102266.69;5052839;28;45500;-68
2022/07/07 09:19:26;;;;;;;;;1.33;1.33;;;;;27.91;47.27;102264.66;5060270;28;45789;-68
2022/07/07 09:21:51;;;;;;;;;2.33;2.00;;;;;27.72;48.50;102283.25;5059004;28;45378;-68
2022/07/07 09:24:18;;;;;;;;;2.00;2.00;;;;;27.77;48.10;102278.69;5060831;28;46499;-68
2022/07/07 09:26:46;;;;;;;;;2.00;1.33;;;;;27.61;48.43;102282.03;5054167;28;45367;-68
2022/07/07 09:29:20;;;;;;;;;2.67;2.00;;;;;28.02;48.05;102281.53;5061685;28;45441;-68
2022/07/07 09:32:00;;;;;;;;;3.00;3.00;;;;;28.08;47.71;102285.34;5056188;28;45259;-68
2022/07/07 09:34:28;;;;;;;;;3.00;3.00;;;;;28.31;47.41;102281.97;5060764;28;45496;-68
2022/07/07 09:39:46;;;;;;;;;5.00;3.00;;;;;28.48;46.46;102294.28;5061102;28;45466;-68
2022/07/07 09:42:30;;;;;;;;;5.33;3.00;;;;;28.04;47.22;102298.94;5055130;28;45385;-69
2022/07/07 09:45:00;;;;;;;;;3.00;3.00;;;;;27.78;48.15;102311.13;5061707;28;45579;-68
2022/07/07 09:47:26;;;;;;;;;5.00;5.00;;;;;27.43;47.42;102309.78;5055108;28;45449;-68
2022/07/07 09:50:06;;;;;;;;;3.00;3.00;;;;;27.29;48.69;102320.16;5061642;28;45403;-68
2022/07/07 09:52:34;;;;;;;;;3.00;3.00;;;;;27.31;48.76;102326.41;5055380;28;45311;-68
2022/07/07 09:55:01;;;;;;;;;1.00;1.00;;;;;27.20;48.86;102331.78;5055726;28;45628;-68
2022/07/07 09:57:27;;;;;;;;;4.33;4.33;;;;;26.76;50.97;102347.31;5058181;28;45394;-68
2022/07/07 09:59:52;;;;;;;;;2.00;2.00;;;;;26.71;50.13;102347.13;5061761;28;45369;-68
2022/07/07 10:02:26;;;;;;;;;2.33;2.33;;;;;25.90;51.94;102346.41;5056929;28;45417;-67
2022/07/07 10:04:58;;;;;;;;;4.33;2.67;;;;;25.87;52.59;102346.81;5056767;28;46220;-67
2022/07/07 10:07:26;;;;;;;;;3.00;3.00;;;;;25.83;53.12;102356.69;5056491;28;46025;-67
2022/07/07 10:09:58;;;;;;;;;2.00;2.00;;;;;25.85;52.37;102355.41;5076921;27;45475;-70
2022/07/07 10:12:26;;;;;;;;;1.00;1.00;;;;;25.98;52.39;102354.56;5063185;28;45414;-67
2022/07/07 10:14:58;;;;;;;;;2.00;2.00;;;;;26.06;51.09;102354.38;5064254;28;45524;-67
2022/07/07 10:17:25;;;;;;;;;3.00;3.00;;;;;26.05;50.54;102366.59;5055102;28;45396;-66
2022/07/07 10:19:51;;;;;;;;;2.00;2.00;;;;;26.03;51.11;102377.06;5063208;28;45452;-69
2022/07/07 10:22:26;;;;;;;;;5.00;2.33;;;;;26.15;51.55;102375.41;5058561;28;45511;-68
2022/07/07 10:24:56;;;;;;;;;2.00;2.00;;;;;26.10;51.54;102365.94;5063533;28;45488;-68
2022/07/07 10:27:23;;;;;;;;;6.00;6.00;;;;;26.32;51.57;102373.06;5057764;28;45867;-66
2022/07/07 10:29:54;;;;;;;;;4.67;3.67;;;;;26.55;50.70;102364.28;5064936;28;45394;-69
2022/07/07 10:32:32;;;;;;;;;4.00;3.00;;;;;26.95;50.21;102379.09;5061558;28;45282;-69
2022/07/07 10:35:05;;;;;;;;;2.00;2.00;;;;;26.87;50.27;102371.78;5063842;28;45460;-69
2022/07/07 10:37:41;;;;;;;;;1.00;1.00;;;;;26.84;50.04;102374.97;5057900;28;45398;-68
2022/07/07 10:40:13;;;;;;;;;3.33;3.33;;;;;26.81;50.43;102383.81;5061366;28;45464;-69
2022/07/07 10:42:48;;;;;;;;;2.00;2.00;;;;;26.77;50.32;102385.28;5057397;28;45752;-68
2022/07/07 10:45:14;;;;;;;;;2.00;2.00;;;;;26.67;49.43;102391.28;5064178;28;45234;-69
2022/07/07 10:47:40;;;;;;;;;2.33;2.00;;;;;26.72;50.20;102399.03;5072950;28;45500;-68
2022/07/07 10:50:26;;;;;;;;;5.33;5.33;;;;;26.73;49.75;102392.38;5064308;28;45261;-68
2022/07/07 10:52:53;;;;;;;;;2.00;2.00;;;;;26.08;51.31;102394.00;5058002;28;45380;-68
2022/07/07 10:55:18;;;;;;;;;4.00;4.00;;;;;26.08;52.12;102391.22;5062456;28;47104;-68
2022/07/07 10:57:46;;;;;;;;;5.33;4.00;;;;;26.13;52.42;102399.81;5058556;28;45484;-68
2022/07/07 11:00:12;;;;;;;;;3.00;3.00;;;;;26.34;52.04;102405.25;5064074;28;45215;-67
2022/07/07 11:02:51;;;;;;;;;7.00;5.67;;;;;26.23;51.68;102405.81;5059807;28;45397;-69
2022/07/07 11:05:16;;;;;;;;;4.00;4.00;;;;;26.37;51.71;102400.31;5063754;28;45435;-68
2022/07/07 11:07:43;;;;;;;;;6.33;6.33;;;;;26.22;52.21;102403.25;5062796;28;45438;-65
2022/07/07 11:10:11;;;;;;;;;5.00;5.00;;;;;26.54;50.99;102405.25;5065010;28;45460;-67
2022/07/07 11:12:40;;;;;;;;;6.00;4.00;;;;;26.87;50.41;102408.03;5058460;28;45494;-67
2022/07/07 11:15:15;;;;;;;;;4.33;4.00;;;;;26.83;50.06;102403.09;5063356;28;45313;-67
2022/07/07 11:17:53;;;;;;;;;7.33;7.33;;;;;26.93;49.41;102420.28;5051079;28;46095;-67
2022/07/07 11:20:27;;;;;;;;;4.33;2.67;;;;;27.34;49.02;102404.09;5061377;28;45502;-67
2022/07/07 11:23:04;;;;;;;;;3.00;3.00;;;;;27.26;47.54;102423.00;5059859;28;45451;-67
2022/07/07 11:25:30;;;;;;;;;2.00;2.00;;;;;26.88;47.59;102403.31;5060300;28;47226;-67